Tougaloo, MS (39174)

7:27 PM CDT on May 27, 2017 (GMT -0500)
Dinsmor | | Change Station

Elev 371 ft 32.42 °N, 90.17 °W | Updated 3 seconds ago

Partly Cloudy
Partly Cloudy
84.7 °F
Feels Like 90 °F
N
0.0
Wind Variable Wind from SSE
Gusts 0.0 mph

Today
High -- | Low -- °F
--% Chance of Precip.
Yesterday
High -- | Low -- °F
Precip. -- in
Pressure 29.89 in
Visibility 10.0 miles
Clouds Clear
Heat Index 90 °F
Dew Point 72 °F
Humidity 65%
Rainfall 0.00 in
Snow Depth Not available.
5:55 AM 8:00 PM
Waxing Crescent, 7% visible
METAR KHKS 272353Z 21009KT 10SM CLR 30/22 A2991 RMK AO2 SLP120 T03000222 10322 20289 56013
Pressure 29.89 in
Visibility 10.0 miles
Clouds Clear
Heat Index 90 °F
Dew Point 72 °F
Humidity 65%
Rainfall 0.00 in
Snow Depth Not available.
5:55 AM 8:00 PM
Waxing Crescent, 7% visible
METAR KHKS 272353Z 21009KT 10SM CLR 30/22 A2991 RMK AO2 SLP120 T03000222 10322 20289 56013

Get Severe Weather Alerts

Thanks for signing up!

Be on the lookout for a verification email in your inbox.

You'll start receiving the daily forecast at 6 AM.

×

10-Day Weather Forecast

Almanac

Astronomy

May. 27, 2017 Rise Set
Actual Time
Civil Twilight
Nautical Twilight
Astronomical Twilight
Moon
Length of Visible Light
Length of Day
Tomorrow will be .
, % of the Moon is Illuminated

Today's Extremes

State Highs State Lows

Community

WunderPhotos

Category 6

Welcome to Category 6. This is the collective home for Weather Underground's featured writeups by Dr. Jeff Masters (right), Bob Henson (left), Chris Burt, and other regular contributors.

Nearby

Air Quality

  Air Quality AQ Index Pollutant
Not available.

Snow Depth

Station Depth Elevation

Earthquake Activity

City Distance Mag. Time & Date
Minimum magnitude displayed is 2.5.

Coastal Water Temperatures

Place Temperature

Stations

Nearby Weather Stations

Station Location Temp. Windchill Dew Point Humidity Wind Precip. Elev Updated Type
                   

Watches & Warnings

There are currently no watches in effect.